Time;durP1;ratioP1;P1;durP2;ratioP2;P2;SDS_P1;SDS_P2;PMS_P1;PMS_P2;Temp;Humidity;BMP_temperature;BMP_pressure;BME280_temperature;BME280_humidity;BME280_pressure;Samples;Min_cycle;Max_cycle;Signal;HPM_P1;HPM_P2
2023/09/05 00:01:51;;;;;;;3.80;2.60;;;;;;;29.19;37.44;101093.41;102897;1291;61613;-82
2023/09/05 00:04:16;;;;;;;3.50;2.50;;;;;;;29.20;37.59;101095.56;103029;1294;61326;-82
2023/09/05 00:06:42;;;;;;;3.70;2.40;;;;;;;29.20;37.49;101095.75;102821;1297;61686;-82
2023/09/05 00:09:07;;;;;;;3.10;2.20;;;;;;;29.19;37.67;101091.92;102817;1289;62540;-81
2023/09/05 00:11:34;;;;;;;3.90;2.70;;;;;;;29.20;37.79;101087.75;102843;1295;61950;-82
2023/09/05 00:14:03;;;;;;;3.40;2.40;;;;;;;29.20;37.72;101083.96;102789;1292;61479;-83
2023/09/05 00:16:29;;;;;;;3.20;2.30;;;;;;;29.20;37.69;101083.23;102844;1289;65641;-83
2023/09/05 00:18:54;;;;;;;3.30;2.50;;;;;;;29.20;37.76;101081.61;102804;1293;61346;-82
2023/09/05 00:21:20;;;;;;;3.30;2.50;;;;;;;29.19;37.61;101079.83;102833;1294;62264;-81
2023/09/05 00:23:45;;;;;;;3.70;2.40;;;;;;;29.19;37.65;101077.45;102844;1292;62255;-82
2023/09/05 00:26:11;;;;;;;3.90;2.50;;;;;;;29.20;37.69;101080.10;102714;1297;61475;-81
2023/09/05 00:28:38;;;;;;;3.50;2.50;;;;;;;29.19;37.57;101081.44;102793;1292;61400;-82
2023/09/05 00:31:03;;;;;;;3.40;2.50;;;;;;;29.19;37.63;101079.12;102851;1294;61381;-81
2023/09/05 00:33:29;;;;;;;3.90;2.60;;;;;;;29.19;37.85;101079.66;102757;1296;61403;-81
2023/09/05 00:35:56;;;;;;;3.30;2.40;;;;;;;29.19;37.58;101078.02;102793;1297;61851;-82
2023/09/05 00:38:24;;;;;;;3.50;2.30;;;;;;;29.19;37.52;101084.95;102824;1296;61353;-82
2023/09/05 00:40:50;;;;;;;3.30;2.40;;;;;;;29.19;37.75;101086.21;102876;1291;61434;-82
2023/09/05 00:43:19;;;;;;;3.50;2.60;;;;;;;29.19;37.62;101082.62;102823;1290;62450;-83
2023/09/05 00:45:51;;;;;;;3.30;2.50;;;;;;;29.19;37.66;101082.63;102838;1293;63903;-83
2023/09/05 00:48:23;;;;;;;3.60;2.70;;;;;;;29.19;37.66;101075.92;102954;1289;65686;-83
2023/09/05 00:50:51;;;;;;;3.40;2.60;;;;;;;29.19;37.56;101073.20;102946;1290;63004;-81
2023/09/05 00:53:17;;;;;;;3.00;2.20;;;;;;;29.18;37.62;101069.80;102835;1289;61299;-82
2023/09/05 00:55:43;;;;;;;3.50;2.60;;;;;;;29.18;37.68;101071.64;102791;1296;61414;-82
2023/09/05 00:58:10;;;;;;;3.50;2.80;;;;;;;29.18;37.56;101070.72;102886;1291;61317;-82
2023/09/05 01:00:36;;;;;;;3.90;2.70;;;;;;;29.18;37.66;101069.48;103147;1294;61402;-82
2023/09/05 01:03:02;;;;;;;3.80;2.50;;;;;;;29.18;37.68;101064.20;102720;1291;61418;-82
2023/09/05 01:05:28;;;;;;;3.50;2.50;;;;;;;29.18;37.75;101064.73;102839;1293;61397;-81
2023/09/05 01:08:07;;;;;;;3.50;2.50;;;;;;;29.18;37.51;101072.38;102814;1296;62501;-82
2023/09/05 01:10:42;;;;;;;3.00;2.40;;;;;;;29.17;37.44;101077.67;102875;1295;61386;-81
2023/09/05 01:13:09;;;;;;;3.30;2.50;;;;;;;29.17;37.52;101072.08;102895;1289;61446;-82
2023/09/05 01:15:34;;;;;;;3.60;2.60;;;;;;;29.17;37.81;101066.63;102838;1291;62260;-81
2023/09/05 01:18:00;;;;;;;3.90;2.60;;;;;;;29.17;37.45;101059.94;102988;1294;61400;-82
2023/09/05 01:20:39;;;;;;;3.50;2.50;;;;;;;29.17;37.52;101056.50;102909;1293;61370;-81
2023/09/05 01:23:13;;;;;;;3.80;2.50;;;;;;;29.17;37.50;101064.89;102809;1289;62307;-81
2023/09/05 01:25:40;;;;;;;3.50;2.40;;;;;;;29.17;37.62;101075.20;102910;1291;63704;-81
2023/09/05 01:28:11;;;;;;;3.70;2.70;;;;;;;29.16;37.76;101075.60;102830;1289;65739;-82
2023/09/05 01:30:40;;;;;;;3.80;2.60;;;;;;;29.16;37.69;101081.78;102784;1297;61387;-81
2023/09/05 01:33:06;;;;;;;5.50;2.80;;;;;;;29.17;37.47;101084.84;102823;1291;61344;-81
2023/09/05 01:35:32;;;;;;;3.60;2.50;;;;;;;29.17;37.54;101084.81;102883;1291;61401;-81
2023/09/05 01:37:58;;;;;;;3.20;2.50;;;;;;;29.16;37.42;101085.04;103193;1293;61421;-82
2023/09/05 01:40:23;;;;;;;3.60;2.30;;;;;;;29.16;37.55;101082.32;102837;1291;62462;-82
2023/09/05 01:42:49;;;;;;;3.30;2.50;;;;;;;29.16;37.64;101077.23;102860;1290;61443;-82
2023/09/05 01:45:14;;;;;;;3.10;2.50;;;;;;;29.16;37.63;101072.39;102783;1298;61440;-82
2023/09/05 01:47:40;;;;;;;3.90;2.50;;;;;;;29.16;37.82;101074.55;103007;1291;70584;-82
2023/09/05 01:50:06;;;;;;;3.70;2.40;;;;;;;29.16;37.69;101074.54;103086;1290;61860;-82
2023/09/05 01:52:32;;;;;;;4.10;2.60;;;;;;;29.16;37.55;101070.24;102802;1291;61597;-81
2023/09/05 01:54:58;;;;;;;3.50;2.60;;;;;;;29.16;37.55;101068.61;102891;1291;62564;-82
2023/09/05 01:57:23;;;;;;;3.00;2.40;;;;;;;29.16;37.49;101065.35;102759;1291;61348;-82
2023/09/05 01:59:49;;;;;;;3.70;2.60;;;;;;;29.16;37.55;101063.17;102869;1290;61972;-84
2023/09/05 02:02:14;;;;;;;3.60;2.40;;;;;;;29.15;37.55;101067.93;102862;1291;66995;-82
2023/09/05 02:04:40;;;;;;;4.00;2.50;;;;;;;29.15;37.66;101067.39;102851;1290;61439;-81
2023/09/05 02:07:08;;;;;;;3.80;2.40;;;;;;;29.16;37.49;101070.80;102842;1296;61769;-82
2023/09/05 02:09:35;;;;;;;3.50;2.50;;;;;;;29.15;37.54;101074.12;103004;1291;61290;-81
2023/09/05 02:12:01;;;;;;;3.60;2.50;;;;;;;29.15;37.60;101077.55;102901;1293;61393;-82
2023/09/05 02:14:26;;;;;;;5.10;2.60;;;;;;;29.15;37.62;101076.49;102875;1291;62160;-83
2023/09/05 02:16:52;;;;;;;3.70;2.40;;;;;;;29.15;37.56;101076.32;102857;1293;62078;-82
2023/09/05 02:19:19;;;;;;;4.10;2.70;;;;;;;29.15;37.64;101081.39;103201;1291;62635;-82
2023/09/05 02:21:45;;;;;;;3.80;2.50;;;;;;;29.15;37.65;101086.28;102899;1291;61521;-82
2023/09/05 02:24:12;;;;;;;3.70;2.60;;;;;;;29.15;37.63;101099.16;102863;1291;61463;-82
2023/09/05 02:26:38;;;;;;;4.10;2.70;;;;;;;29.14;37.67;101104.52;102841;1293;61463;-82
2023/09/05 02:29:03;;;;;;;3.80;2.50;;;;;;;29.14;37.67;101110.46;102853;1295;61432;-83
2023/09/05 02:31:29;;;;;;;4.00;2.80;;;;;;;29.14;37.71;101119.68;102908;1293;61819;-82
2023/09/05 02:33:54;;;;;;;3.60;2.70;;;;;;;29.14;37.69;101122.58;102843;1293;65879;-82
2023/09/05 02:36:21;;;;;;;3.20;2.50;;;;;;;29.14;37.83;101122.95;102812;1291;62559;-82
2023/09/05 02:38:47;;;;;;;3.70;2.80;;;;;;;29.14;37.62;101127.53;102982;1291;61408;-82
2023/09/05 02:41:14;;;;;;;3.40;2.40;;;;;;;29.14;37.67;101135.17;102809;1291;61333;-82
2023/09/05 02:43:39;;;;;;;4.50;2.60;;;;;;;29.13;37.68;101137.71;102753;1291;61495;-82
2023/09/05 02:46:05;;;;;;;5.50;2.80;;;;;;;29.14;37.75;101139.28;103047;1290;61569;-81
2023/09/05 02:48:30;;;;;;;4.20;2.60;;;;;;;29.14;37.75;101134.80;102850;1291;61964;-82
2023/09/05 02:51:03;;;;;;;3.80;2.70;;;;;;;29.14;37.62;101133.34;102882;1291;61384;-82
2023/09/05 02:53:28;;;;;;;4.20;2.70;;;;;;;29.13;37.61;101125.58;102807;1291;64861;-82
2023/09/05 02:55:54;;;;;;;3.80;2.60;;;;;;;29.13;37.56;101124.90;103100;1296;61314;-81
2023/09/05 02:58:19;;;;;;;3.70;2.50;;;;;;;29.13;37.72;101125.48;102876;1290;61866;-82
2023/09/05 03:00:49;;;;;;;3.60;2.50;;;;;;;29.12;37.71;101125.02;102822;1296;61377;-82
2023/09/05 03:03:16;;;;;;;3.60;2.50;;;;;;;29.12;37.63;101130.60;102886;1293;64092;-82
2023/09/05 03:05:43;;;;;;;4.50;2.70;;;;;;;29.12;37.62;101132.77;102906;1291;65627;-81
2023/09/05 03:08:08;;;;;;;3.50;2.60;;;;;;;29.12;37.72;101133.69;102896;1291;62065;-83
2023/09/05 03:10:34;;;;;;;3.20;2.40;;;;;;;29.12;37.53;101132.54;102912;1291;61397;-81
2023/09/05 03:13:00;;;;;;;3.60;2.60;;;;;;;29.12;37.58;101129.64;102871;1290;61407;-84
2023/09/05 03:15:26;;;;;;;3.90;2.60;;;;;;;29.12;37.72;101128.08;102942;1291;61402;-83
2023/09/05 03:17:51;;;;;;;4.00;2.70;;;;;;;29.12;37.77;101135.49;102758;1291;61450;-82
2023/09/05 03:20:18;;;;;;;4.20;2.50;;;;;;;29.12;37.67;101140.21;102835;1291;61421;-82
2023/09/05 03:22:44;;;;;;;3.50;2.60;;;;;;;29.11;37.64;101146.80;102787;1296;62981;-83
2023/09/05 03:25:10;;;;;;;3.40;2.60;;;;;;;29.11;37.69;101154.75;102983;1291;61357;-82
2023/09/05 03:27:35;;;;;;;4.40;2.70;;;;;;;29.11;37.62;101156.05;102804;1293;61431;-82
2023/09/05 03:30:01;;;;;;;3.60;2.50;;;;;;;29.11;37.64;101158.08;102827;1291;61850;-82
2023/09/05 03:32:27;;;;;;;3.70;2.60;;;;;;;29.11;37.64;101160.08;102829;1293;61394;-81
2023/09/05 03:34:52;;;;;;;3.50;2.70;;;;;;;29.10;37.57;101164.43;102870;1296;61413;-82
2023/09/05 03:37:18;;;;;;;4.30;2.60;;;;;;;29.10;37.51;101163.72;102955;1291;63968;-82
2023/09/05 03:39:43;;;;;;;3.30;2.50;;;;;;;29.10;37.85;101170.27;102795;1293;62011;-81
2023/09/05 03:42:10;;;;;;;3.80;2.60;;;;;;;29.10;37.62;101173.37;102828;1291;61351;-82
2023/09/05 03:44:35;;;;;;;3.90;2.50;;;;;;;29.10;37.69;101181.55;102813;1291;61393;-84
2023/09/05 03:47:01;;;;;;;4.60;3.10;;;;;;;29.10;37.64;101182.81;102875;1291;61957;-83
2023/09/05 03:49:27;;;;;;;4.00;2.70;;;;;;;29.09;37.59;101182.33;102912;1291;61494;-81
2023/09/05 03:51:57;;;;;;;5.70;3.00;;;;;;;29.09;37.43;101181.44;102870;1291;66608;-81
2023/09/05 03:54:23;;;;;;;4.30;2.80;;;;;;;29.08;37.34;101180.61;102867;1290;61357;-81
2023/09/05 03:56:49;;;;;;;4.80;2.90;;;;;;;29.08;37.17;101186.83;102879;1291;61329;-84
2023/09/05 03:59:15;;;;;;;4.00;2.70;;;;;;;29.07;37.18;101189.40;102851;1291;62389;-82
2023/09/05 04:01:41;;;;;;;4.50;3.10;;;;;;;29.07;37.20;101191.47;102829;1290;61350;-82
2023/09/05 04:04:09;;;;;;;4.20;3.10;;;;;;;29.06;37.06;101195.73;102847;1292;61472;-81
2023/09/05 04:06:37;;;;;;;4.40;3.00;;;;;;;29.04;36.94;101186.79;103135;1290;61980;-82
2023/09/05 04:09:03;;;;;;;4.60;2.90;;;;;;;29.04;36.67;101193.68;102870;1291;63617;-82
2023/09/05 04:11:28;;;;;;;4.30;2.90;;;;;;;29.04;36.67;101193.75;102919;1291;61933;-82
2023/09/05 04:13:54;;;;;;;5.70;2.90;;;;;;;29.04;36.72;101195.37;103179;1295;61434;-82
2023/09/05 04:16:19;;;;;;;5.30;3.10;;;;;;;29.04;36.55;101201.66;102907;1291;62577;-81
2023/09/05 04:18:45;;;;;;;4.00;2.80;;;;;;;29.04;36.61;101208.59;102696;1294;61566;-82
2023/09/05 04:21:11;;;;;;;4.10;3.00;;;;;;;29.04;36.54;101206.25;102811;1290;72648;-82
2023/09/05 04:23:36;;;;;;;5.50;3.10;;;;;;;29.04;36.22;101207.00;102864;1290;61399;-81
2023/09/05 04:26:02;;;;;;;6.10;3.10;;;;;;;29.03;36.25;101209.20;102844;1290;61491;-82
2023/09/05 04:28:28;;;;;;;6.80;3.10;;;;;;;29.03;36.40;101212.13;102808;1291;61435;-81
2023/09/05 04:30:55;;;;;;;10.40;3.40;;;;;;;29.02;36.37;101214.05;102885;1292;61323;-82
2023/09/05 04:33:23;;;;;;;6.40;3.30;;;;;;;29.01;35.97;101207.38;102946;1291;61279;-82
2023/09/05 04:35:49;;;;;;;7.70;3.20;;;;;;;29.01;35.91;101213.77;102883;1291;62201;-81
2023/09/05 04:38:14;;;;;;;6.30;3.50;;;;;;;29.01;36.18;101210.91;102876;1291;61515;-81
2023/09/05 04:40:40;;;;;;;6.20;3.30;;;;;;;29.00;35.86;101211.33;102865;1291;61402;-81
2023/09/05 04:43:06;;;;;;;6.70;3.40;;;;;;;29.00;36.00;101208.41;102818;1290;62292;-81
2023/09/05 04:45:31;;;;;;;7.60;3.50;;;;;;;28.99;36.03;101205.95;102890;1291;61411;-82
2023/09/05 04:47:57;;;;;;;7.80;3.80;;;;;;;28.99;35.77;101203.30;102881;1291;62315;-82
2023/09/05 04:50:23;;;;;;;6.60;3.70;;;;;;;28.98;35.62;101200.30;102936;1290;61343;-82
2023/09/05 04:52:48;;;;;;;5.70;3.20;;;;;;;28.98;35.46;101197.23;102854;1289;61431;-81
2023/09/05 04:55:14;;;;;;;5.60;3.50;;;;;;;28.97;35.24;101194.39;102859;1291;61399;-81
2023/09/05 04:57:42;;;;;;;7.40;3.80;;;;;;;28.97;35.29;101193.84;102872;1289;61396;-82
2023/09/05 05:00:13;;;;;;;7.30;3.60;;;;;;;28.97;35.28;101193.15;102870;1291;61327;-82
2023/09/05 05:02:38;;;;;;;6.20;3.60;;;;;;;28.95;35.48;101193.35;102692;1291;62837;-81
2023/09/05 05:05:07;;;;;;;6.50;3.20;;;;;;;28.95;35.30;101193.86;102926;1293;61391;-84
2023/09/05 05:07:32;;;;;;;8.20;3.60;;;;;;;28.95;35.14;101192.09;103133;1291;63076;-82
2023/09/05 05:09:58;;;;;;;8.00;3.80;;;;;;;28.94;35.22;101191.41;102910;1289;61410;-82
2023/09/05 05:12:24;;;;;;;5.90;3.90;;;;;;;28.94;34.96;101183.80;102909;1291;61475;-82
2023/09/05 05:14:49;;;;;;;6.40;3.50;;;;;;;28.94;34.94;101186.52;103328;1289;61380;-82
2023/09/05 05:17:15;;;;;;;8.40;3.90;;;;;;;28.94;34.97;101188.14;103309;1292;62304;-82
2023/09/05 05:19:41;;;;;;;6.40;3.50;;;;;;;28.94;34.89;101187.80;103428;1291;61422;-82
2023/09/05 05:22:07;;;;;;;8.70;3.70;;;;;;;28.95;34.93;101191.02;103290;1291;61583;-82
2023/09/05 05:24:32;;;;;;;9.10;3.60;;;;;;;28.95;34.84;101188.43;103339;1291;61286;-81
2023/09/05 05:26:58;;;;;;;7.20;3.70;;;;;;;28.96;35.03;101186.39;103108;1289;61411;-81
2023/09/05 05:29:23;;;;;;;7.50;3.70;;;;;;;28.96;34.75;101188.17;103042;1293;61423;-81
2023/09/05 05:31:49;;;;;;;6.20;3.30;;;;;;;28.96;34.85;101188.05;103123;1289;61495;-82
2023/09/05 05:34:16;;;;;;;7.30;3.70;;;;;;;28.96;34.74;101190.20;103145;1291;61957;-82
2023/09/05 05:36:41;;;;;;;6.20;3.50;;;;;;;28.95;34.96;101184.98;103019;1291;61325;-82
2023/09/05 05:39:07;;;;;;;8.60;3.60;;;;;;;28.94;34.76;101193.97;102955;1291;61493;-82
2023/09/05 05:41:34;;;;;;;8.00;3.80;;;;;;;28.93;34.65;101188.06;102931;1290;61331;-82
2023/09/05 05:43:59;;;;;;;7.40;3.80;;;;;;;28.92;34.51;101189.08;102875;1291;61476;-82
2023/09/05 05:46:25;;;;;;;5.80;3.30;;;;;;;28.91;34.61;101186.63;102919;1294;61794;-81
2023/09/05 05:48:51;;;;;;;6.60;3.50;;;;;;;28.91;34.65;101185.79;102878;1291;61480;-81
2023/09/05 05:51:17;;;;;;;6.40;3.20;;;;;;;28.91;34.66;101186.31;102833;1291;65706;-81
2023/09/05 05:53:44;;;;;;;5.80;3.40;;;;;;;28.91;34.53;101184.08;103206;1296;61437;-82
2023/09/05 05:56:10;;;;;;;5.50;3.30;;;;;;;28.91;34.38;101181.73;103321;1291;61394;-82
2023/09/05 05:58:36;;;;;;;7.60;3.50;;;;;;;28.92;34.16;101184.58;103025;1291;61409;-82
2023/09/05 06:01:02;;;;;;;4.30;3.10;;;;;;;28.91;34.06;101187.02;103126;1293;61368;-82
2023/09/05 06:03:27;;;;;;;5.20;3.40;;;;;;;28.91;34.28;101188.10;102731;1290;413404;-82
2023/09/05 06:05:56;;;;;;;5.10;3.30;;;;;;;28.92;34.24;101191.30;103050;1291;61487;-83
2023/09/05 06:08:22;;;;;;;8.40;3.40;;;;;;;28.93;34.21;101194.27;103004;1292;61747;-82
2023/09/05 06:10:48;;;;;;;8.00;3.40;;;;;;;28.94;34.15;101193.27;102904;1296;61390;-82
2023/09/05 06:13:14;;;;;;;5.00;3.30;;;;;;;28.95;34.12;101196.42;103088;1296;61511;-83
2023/09/05 06:15:41;;;;;;;5.70;3.10;;;;;;;28.96;34.31;101189.27;102936;1291;61483;-83
2023/09/05 06:18:08;;;;;;;7.20;3.70;;;;;;;28.97;34.19;101189.86;102950;1290;61365;-83
2023/09/05 06:20:34;;;;;;;5.30;3.30;;;;;;;28.98;34.13;101195.04;103071;1291;61427;-83
2023/09/05 06:23:04;;;;;;;4.80;3.20;;;;;;;28.97;34.15;101192.92;103217;1289;61815;-83
2023/09/05 06:25:30;;;;;;;7.30;3.60;;;;;;;28.98;34.01;101191.40;103031;1293;61278;-83
2023/09/05 06:27:55;;;;;;;7.40;3.40;;;;;;;28.98;33.94;101193.20;103177;1291;62319;-84
2023/09/05 06:30:22;;;;;;;6.30;3.30;;;;;;;28.99;33.84;101194.74;103032;1295;61414;-83
2023/09/05 06:32:48;;;;;;;6.30;3.30;;;;;;;28.99;33.80;101191.34;102888;1290;61431;-83
2023/09/05 06:35:13;;;;;;;5.80;3.30;;;;;;;29.00;33.79;101196.32;102960;1296;62025;-83
2023/09/05 06:37:39;;;;;;;5.30;3.50;;;;;;;29.00;33.90;101197.40;102967;1288;61439;-83
2023/09/05 06:40:15;;;;;;;5.00;3.00;;;;;;;29.00;33.77;101204.79;103219;1290;61396;-83
2023/09/05 06:42:42;;;;;;;6.30;3.40;;;;;;;29.01;33.93;101209.45;103417;1289;65857;-81
2023/09/05 06:45:08;;;;;;;7.00;3.20;;;;;;;29.02;33.99;101211.33;103576;1295;61342;-82
2023/09/05 06:47:34;;;;;;;6.20;3.40;;;;;;;29.02;33.62;101211.46;103220;1293;61449;-81
2023/09/05 06:49:59;;;;;;;6.10;3.20;;;;;;;29.03;33.79;101203.80;103221;1291;61367;-81
2023/09/05 06:52:25;;;;;;;6.10;3.30;;;;;;;29.04;33.86;101210.95;103286;1289;62980;-81
2023/09/05 06:54:52;;;;;;;4.80;2.90;;;;;;;29.05;33.82;101213.20;103264;1293;61404;-84
2023/09/05 06:57:18;;;;;;;5.80;3.00;;;;;;;29.06;33.99;101217.44;103013;1291;61824;-81
2023/09/05 06:59:44;;;;;;;5.90;3.00;;;;;;;29.06;33.96;101221.56;103112;1291;61500;-81
2023/09/05 07:02:09;;;;;;;5.90;2.90;;;;;;;29.07;33.90;101230.00;103417;1291;62587;-81
2023/09/05 07:04:36;;;;;;;7.30;3.30;;;;;;;29.08;33.78;101238.27;103140;1288;61448;-81
2023/09/05 07:07:05;;;;;;;5.40;3.10;;;;;;;29.09;33.96;101248.70;103174;1291;61637;-81
2023/09/05 07:09:31;;;;;;;5.40;3.10;;;;;;;29.08;33.83;101250.16;103259;1289;61394;-82
2023/09/05 07:11:57;;;;;;;5.20;3.00;;;;;;;29.09;33.76;101254.45;103431;1293;62542;-82
2023/09/05 07:14:23;;;;;;;5.20;3.00;;;;;;;29.10;34.02;101254.19;103338;1291;62183;-82
2023/09/05 07:16:48;;;;;;;5.60;3.10;;;;;;;29.10;33.91;101255.10;103209;1290;61387;-83
2023/09/05 07:19:15;;;;;;;6.00;3.30;;;;;;;29.10;33.81;101251.81;103413;1289;61901;-82
2023/09/05 07:21:41;;;;;;;4.70;3.10;;;;;;;29.10;34.13;101250.86;103312;1290;61325;-82
2023/09/05 07:24:11;;;;;;;6.30;3.00;;;;;;;29.12;33.91;101247.69;103418;1292;62424;-82
2023/09/05 07:26:38;;;;;;;6.30;3.20;;;;;;;29.12;33.79;101248.23;103225;1291;65842;-83
2023/09/05 07:29:08;;;;;;;7.70;2.90;;;;;;;29.12;33.83;101251.64;103215;1293;61367;-83
2023/09/05 07:31:34;;;;;;;7.10;3.30;;;;;;;29.12;33.90;101250.38;103493;1295;62318;-83
2023/09/05 07:34:00;;;;;;;5.40;3.20;;;;;;;29.12;33.70;101249.50;103541;1290;61411;-83
2023/09/05 07:36:31;;;;;;;5.20;3.00;;;;;;;29.12;33.75;101252.73;103025;1291;61386;-83
2023/09/05 07:38:56;;;;;;;4.30;3.00;;;;;;;29.14;33.95;101260.37;103488;1291;61313;-83
2023/09/05 07:41:22;;;;;;;6.40;2.90;;;;;;;29.14;33.85;101263.23;103245;1292;61484;-82
2023/09/05 07:43:48;;;;;;;6.20;3.20;;;;;;;29.13;33.84;101260.77;103197;1291;61421;-83
2023/09/05 07:46:14;;;;;;;6.10;3.10;;;;;;;29.13;33.60;101254.98;103336;1291;61276;-82
2023/09/05 07:48:39;;;;;;;6.00;3.00;;;;;;;29.13;33.74;101257.52;103594;1289;61389;-82
2023/09/05 07:51:07;;;;;;;6.70;3.10;;;;;;;29.14;33.70;101253.48;103278;1291;61415;-84
2023/09/05 07:53:36;;;;;;;8.30;3.10;;;;;;;29.14;33.63;101253.11;103196;1290;61437;-81
2023/09/05 07:56:03;;;;;;;6.30;2.70;;;;;;;29.13;33.75;101254.45;103163;1288;63477;-83
2023/09/05 07:58:28;;;;;;;8.00;3.10;;;;;;;29.11;33.51;101258.04;103476;1290;61335;-82
2023/09/05 08:00:54;;;;;;;7.30;2.80;;;;;;;29.11;33.53;101269.14;103157;1290;61399;-82
2023/09/05 08:03:21;;;;;;;5.80;2.90;;;;;;;29.11;33.53;101267.34;103064;1290;61509;-82
2023/09/05 08:05:48;;;;;;;7.80;3.10;;;;;;;29.11;33.37;101267.27;103268;1288;61402;-81
2023/09/05 08:08:17;;;;;;;7.30;3.20;;;;;;;29.11;33.58;101259.71;103288;1291;61963;-81
2023/09/05 08:10:43;;;;;;;4.80;2.80;;;;;;;29.10;33.56;101249.27;103114;1291;61485;-82
2023/09/05 08:13:14;;;;;;;6.00;2.80;;;;;;;29.11;33.49;101240.14;103175;1291;62341;-84
2023/09/05 08:15:43;;;;;;;8.80;2.80;;;;;;;29.11;33.38;101235.59;103018;1290;64410;-82
2023/09/05 08:18:10;;;;;;;5.50;3.10;;;;;;;29.12;33.47;101235.55;103174;1290;65786;-81
2023/09/05 08:20:36;;;;;;;6.60;3.00;;;;;;;29.11;33.31;101229.94;103175;1296;61482;-81
2023/09/05 08:23:02;;;;;;;4.60;2.90;;;;;;;29.12;33.39;101223.59;103669;1291;61270;-81
2023/09/05 08:25:28;;;;;;;5.50;3.00;;;;;;;29.12;33.39;101217.45;103356;1288;61400;-81
2023/09/05 08:27:56;;;;;;;8.70;3.00;;;;;;;29.11;33.56;101218.58;103284;1290;61820;-83
2023/09/05 08:30:24;;;;;;;5.60;2.90;;;;;;;29.11;33.33;101217.13;103278;1291;61557;-81
2023/09/05 08:32:50;;;;;;;9.40;3.20;;;;;;;29.11;33.27;101222.23;103155;1288;61298;-81
2023/09/05 08:35:16;;;;;;;7.30;2.80;;;;;;;29.09;33.06;101214.79;103201;1293;61398;-81
2023/09/05 08:37:43;;;;;;;7.80;2.60;;;;;;;29.08;33.01;101209.65;103306;1292;61394;-82
2023/09/05 08:40:09;;;;;;;8.30;2.90;;;;;;;29.08;32.82;101209.45;103136;1290;61436;-82
2023/09/05 08:42:36;;;;;;;5.70;2.80;;;;;;;29.08;33.01;101203.13;103187;1290;61325;-81
2023/09/05 08:45:02;;;;;;;10.10;3.00;;;;;;;29.08;33.03;101195.87;103445;1292;61515;-82
2023/09/05 08:47:28;;;;;;;7.20;2.60;;;;;;;29.07;32.91;101193.36;103572;1292;62469;-83
2023/09/05 08:49:54;;;;;;;6.60;2.90;;;;;;;29.07;33.07;101192.66;103182;1290;61498;-82
2023/09/05 08:52:21;;;;;;;5.70;2.60;;;;;;;29.07;33.04;101202.29;103085;1291;61300;-82
2023/09/05 08:54:50;;;;;;;5.50;2.90;;;;;;;29.07;32.78;101197.77;103087;1291;61418;-82
2023/09/05 08:57:17;;;;;;;7.00;2.90;;;;;;;29.07;32.87;101201.37;103043;1293;65945;-82
2023/09/05 08:59:43;;;;;;;7.80;3.20;;;;;;;29.07;33.02;101208.28;103127;1290;61394;-82
2023/09/05 09:02:14;;;;;;;6.10;2.60;;;;;;;29.07;32.96;101209.38;103414;1293;61405;-82
2023/09/05 09:04:59;;;;;;;7.00;2.60;;;;;;;29.07;32.89;101207.95;103169;1290;63829;-81
2023/09/05 09:07:28;;;;;;;4.40;2.50;;;;;;;29.07;32.77;101207.13;103532;1296;66663;-82
2023/09/05 09:09:57;;;;;;;5.90;2.60;;;;;;;29.08;32.86;101202.88;103547;1292;61423;-82
2023/09/05 09:12:33;;;;;;;;;;;;;;;29.10;32.90;101199.84;103220;1290;62181;-81
2023/09/05 09:15:09;;;;;;;4.50;2.40;;;;;;;29.08;32.85;101191.86;103444;1290;63994;-81
2023/09/05 09:17:36;;;;;;;5.90;2.70;;;;;;;29.09;32.95;101186.13;103195;1290;65977;-81
2023/09/05 09:20:05;;;;;;;5.20;2.70;;;;;;;29.10;32.88;101189.33;103093;1293;61415;-82
2023/09/05 09:22:31;;;;;;;7.10;2.50;;;;;;;29.09;32.72;101189.73;103314;1296;61393;-81
2023/09/05 09:24:56;;;;;;;6.40;2.90;;;;;;;29.10;32.67;101201.45;103179;1296;61397;-81
2023/09/05 09:27:23;;;;;;;7.40;2.70;;;;;;;29.10;32.54;101201.06;103343;1292;61395;-81
2023/09/05 09:29:55;;;;;;;7.00;2.70;;;;;;;29.09;32.57;101209.64;103695;1291;62140;-82
2023/09/05 09:32:24;;;;;;;5.60;2.50;;;;;;;29.10;32.48;101220.83;103564;1291;60056;-82
2023/09/05 09:34:50;;;;;;;4.00;2.50;;;;;;;29.10;32.58;101218.31;103391;1291;63691;-81
2023/09/05 09:37:25;;;;;;;6.40;2.90;;;;;;;29.10;32.35;101222.83;103430;1295;61307;-82
2023/09/05 09:39:58;;;;;;;7.30;2.80;;;;;;;29.10;32.44;101222.69;103588;1291;61426;-82
2023/09/05 09:42:25;;;;;;;5.50;2.60;;;;;;;29.10;32.49;101223.60;103787;1288;61274;-82
2023/09/05 09:44:52;;;;;;;6.20;2.60;;;;;;;29.10;32.46;101223.02;103506;1291;61630;-82
2023/09/05 09:47:18;;;;;;;5.70;2.30;;;;;;;29.11;32.38;101221.66;103686;1291;67119;-82
2023/09/05 09:49:45;;;;;;;5.80;2.70;;;;;;;29.11;32.36;101224.91;103669;1289;61373;-83
2023/09/05 09:52:12;;;;;;;5.10;2.80;;;;;;;29.11;32.14;101215.31;103299;1290;61326;-81
2023/09/05 09:54:38;;;;;;;6.30;2.80;;;;;;;29.11;31.98;101210.40;103359;1289;64760;-81
2023/09/05 09:57:04;;;;;;;7.50;2.70;;;;;;;29.12;32.18;101213.75;102979;1291;62239;-82
2023/09/05 09:59:37;;;;;;;6.40;2.60;;;;;;;29.11;32.36;101210.54;103295;1293;61946;-81
2023/09/05 10:02:10;;;;;;;7.60;2.50;;;;;;;29.07;31.97;101216.41;103611;1293;61513;-82
2023/09/05 10:04:35;;;;;;;13.70;2.60;;;;;;;28.93;31.35;101212.35;103073;1290;63915;-81
2023/09/05 10:07:02;;;;;;;5.80;2.60;;;;;;;28.78;31.09;101209.31;103103;1291;61426;-81
2023/09/05 10:09:30;;;;;;;6.80;2.40;;;;;;;28.74;31.01;101206.42;103786;1291;61369;-81
2023/09/05 10:11:59;;;;;;;7.80;2.30;;;;;;;28.72;30.93;101209.67;103430;1291;61418;-80
2023/09/05 10:14:25;;;;;;;;;;;;;;;28.61;30.99;101215.65;103188;1291;63763;-81
2023/09/05 10:16:50;;;;;;;4.10;2.50;;;;;;;28.57;31.17;101215.85;103212;1290;61477;-80
2023/09/05 10:19:16;;;;;;;6.00;2.50;;;;;;;28.62;31.04;101214.30;103219;1292;61408;-81
2023/09/05 10:21:43;;;;;;;5.80;2.50;;;;;;;28.66;31.28;101206.11;103105;1288;61414;-81
2023/09/05 10:24:08;;;;;;;7.40;2.60;;;;;;;28.70;31.30;101207.35;103454;1293;61360;-81
2023/09/05 10:26:34;;;;;;;6.40;2.70;;;;;;;28.74;31.34;101208.45;103266;1288;61363;-81
2023/09/05 10:29:00;;;;;;;4.60;2.50;;;;;;;28.76;31.45;101216.35;103174;1288;61354;-81
2023/09/05 10:31:26;;;;;;;5.60;2.50;;;;;;;28.80;31.39;101223.80;103138;1290;61319;-84
2023/09/05 10:33:51;;;;;;;4.90;2.40;;;;;;;28.83;31.22;101229.11;103274;1291;61354;-82
2023/09/05 10:36:40;;;;;;;7.60;3.00;;;;;;;28.85;31.36;101235.96;102838;1291;61890;-82
2023/09/05 10:39:24;;;;;;;5.90;2.70;;;;;;;28.87;31.38;101237.60;103152;1289;65899;-81
2023/09/05 10:41:51;;;;;;;5.70;2.40;;;;;;;28.88;31.20;101240.00;103368;1291;61289;-81
2023/09/05 10:44:17;;;;;;;5.60;2.40;;;;;;;28.90;31.20;101236.16;103207;1288;61445;-82
2023/09/05 10:46:43;;;;;;;5.30;2.60;;;;;;;28.93;31.32;101238.48;102977;1296;61421;-81
2023/09/05 10:49:10;;;;;;;5.10;2.40;;;;;;;28.93;31.05;101238.77;103055;1290;61515;-81
2023/09/05 10:51:36;;;;;;;4.60;2.30;;;;;;;28.94;31.16;101241.95;102980;1293;61424;-82
2023/09/05 10:54:31;;;;;;;3.90;2.30;;;;;;;28.96;31.15;101242.13;103225;1290;61619;-83
2023/09/05 10:56:57;;;;;;;5.60;2.50;;;;;;;28.98;31.28;101246.70;102875;1293;65045;-82
2023/09/05 10:59:26;;;;;;;6.40;2.50;;;;;;;28.99;31.14;101236.25;103126;1291;62325;-80
2023/09/05 11:01:56;;;;;;;4.40;2.50;;;;;;;28.99;31.11;101239.29;102801;1295;61478;-81
2023/09/05 11:04:26;;;;;;;6.80;2.80;;;;;;;29.01;31.30;101229.92;102884;1291;61617;-82
2023/09/05 11:07:02;;;;;;;4.40;2.50;;;;;;;29.01;31.21;101222.47;102992;1289;63917;-82
2023/09/05 11:09:29;;;;;;;6.80;2.40;;;;;;;29.01;31.09;101223.32;103046;1295;65615;-82
2023/09/05 11:11:55;;;;;;;5.00;2.60;;;;;;;29.02;30.91;101223.99;103013;1291;61348;-82
2023/09/05 11:14:34;;;;;;;7.00;2.40;;;;;;;29.02;30.97;101220.50;102957;1291;61402;-80
2023/09/05 11:16:59;;;;;;;5.70;2.40;;;;;;;29.03;31.26;101228.60;103387;1291;63802;-81